^^
TXWeather Station Historical Data
Daily Summary for March 30, 2022 Units:  English    Metric   Both
Daily Weekly Monthly Yearly Custom
  High: Low: Average:
Temperature: 82.0 °F 59.0 °F 72.3 °F
Dew Point: 68.0 °F 46.0 °F 58.7 °F
Humidity: 89% 33% 65%
Wind Speed: 33mph 3mph 14.3mph
Wind Gust: 34mph - -
Wind- - SW
Pressure: 29.8 in 29.6 in -
Precipitation: 0.160 in    
Historical Graphs
 
 
Tabular Data for March 30, 2022
Time Temperature Dew Point Pressure Wind Wind Speed Wind Gust Humidity Rainfall Rate (Hourly) solar
00:04 73.0 °F 68.0 °F 29.8 in SSE 19 mph 19 mph 82% 0.000 in 0.00 W/m2
00:09 73.0 °F 68.0 °F 29.7 in SE 17 mph 19 mph 82% 0.000 in 0.00 W/m2
00:14 73.0 °F 68.0 °F 29.7 in SSE 16 mph 19 mph 82% 0.000 in 0.00 W/m2
00:19 73.0 °F 68.0 °F 29.7 in SE 20 mph 22 mph 82% 0.000 in 0.00 W/m2
00:24 73.0 °F 68.0 °F 29.7 in SE 22 mph 27 mph 82% 0.000 in 0.00 W/m2
00:29 73.0 °F 68.0 °F 29.7 in SSE 19 mph 21 mph 82% 0.000 in 0.00 W/m2
00:34 73.0 °F 68.0 °F 29.7 in SSE 23 mph 25 mph 82% 0.000 in 0.00 W/m2
00:44 73.0 °F 68.0 °F 29.7 in SE 23 mph 25 mph 82% 0.000 in 0.00 W/m2
00:49 73.0 °F 68.0 °F 29.7 in SSE 23 mph 25 mph 82% 0.000 in 0.00 W/m2
00:54 73.0 °F 68.0 °F 29.7 in SE 22 mph 26 mph 82% 0.000 in 0.00 W/m2
00:59 73.0 °F 68.0 °F 29.7 in SSE 23 mph 23 mph 82% 0.000 in 0.00 W/m2
01:04 73.0 °F 68.0 °F 29.7 in SSE 18 mph 23 mph 82% 0.000 in 0.00 W/m2
01:09 73.0 °F 67.0 °F 29.7 in SSE 21 mph 24 mph 82% 0.000 in 0.00 W/m2
01:14 73.0 °F 67.0 °F 29.7 in SSE 25 mph 25 mph 81% 0.000 in 0.00 W/m2
01:19 73.0 °F 67.0 °F 29.7 in SE 22 mph 22 mph 81% 0.000 in 0.00 W/m2
01:24 73.0 °F 67.0 °F 29.7 in SSE 26 mph 27 mph 81% 0.000 in 0.00 W/m2
01:29 73.0 °F 67.0 °F 29.7 in SSE 24 mph 27 mph 81% 0.000 in 0.00 W/m2
01:34 73.0 °F 67.0 °F 29.7 in SSE 28 mph 31 mph 81% 0.000 in 0.00 W/m2
01:39 73.0 °F 67.0 °F 29.7 in SSE 20 mph 31 mph 81% 0.000 in 0.00 W/m2
01:44 73.0 °F 67.0 °F 29.7 in SE 33 mph 33 mph 80% 0.000 in 0.00 W/m2
01:49 73.0 °F 67.0 °F 29.7 in SSE 21 mph 29 mph 80% 0.000 in 0.00 W/m2
01:54 73.0 °F 67.0 °F 29.7 in SSE 28 mph 30 mph 80% 0.000 in 0.00 W/m2
01:59 73.0 °F 67.0 °F 29.7 in SSE 22 mph 28 mph 80% 0.000 in 0.00 W/m2
02:04 73.0 °F 67.0 °F 29.7 in SSE 27 mph 30 mph 80% 0.000 in 0.00 W/m2
02:09 73.0 °F 67.0 °F 29.6 in SSE 25 mph 26 mph 80% 0.000 in 0.00 W/m2
02:14 73.0 °F 67.0 °F 29.6 in SSE 28 mph 29 mph 80% 0.000 in 0.00 W/m2
02:19 73.0 °F 67.0 °F 29.6 in SSE 22 mph 29 mph 80% 0.000 in 0.00 W/m2
02:24 73.0 °F 67.0 °F 29.6 in South 26 mph 26 mph 80% 0.000 in 0.00 W/m2
02:29 73.0 °F 67.0 °F 29.6 in SSE 28 mph 31 mph 80% 0.000 in 0.00 W/m2
02:34 73.0 °F 67.0 °F 29.6 in SSE 28 mph 32 mph 80% 0.000 in 0.00 W/m2
02:39 73.0 °F 67.0 °F 29.6 in SSE 20 mph 23 mph 80% 0.000 in 0.00 W/m2
02:44 73.0 °F 67.0 °F 29.6 in SSE 24 mph 27 mph 80% 0.000 in 0.00 W/m2
02:49 73.0 °F 67.0 °F 29.6 in SSE 32 mph 34 mph 80% 0.000 in 0.00 W/m2
02:54 73.0 °F 67.0 °F 29.6 in SSE 25 mph 34 mph 80% 0.000 in 0.00 W/m2
02:59 73.0 °F 67.0 °F 29.6 in SSE 22 mph 28 mph 80% 0.000 in 0.00 W/m2
03:04 73.0 °F 67.0 °F 29.6 in SE 27 mph 27 mph 80% 0.000 in 0.00 W/m2
03:09 73.0 °F 67.0 °F 29.6 in SSE 26 mph 27 mph 80% 0.000 in 0.00 W/m2
03:14 73.0 °F 66.0 °F 29.6 in SSE 20 mph 28 mph 80% 0.000 in 0.00 W/m2
03:19 73.0 °F 66.0 °F 29.6 in SSE 20 mph 28 mph 80% 0.000 in 0.00 W/m2
03:24 73.0 °F 66.0 °F 29.6 in SSE 22 mph 22 mph 80% 0.000 in 0.00 W/m2
03:29 73.0 °F 66.0 °F 29.6 in SSE 25 mph 25 mph 80% 0.000 in 0.00 W/m2
03:34 73.0 °F 66.0 °F 29.6 in SSE 22 mph 25 mph 80% 0.000 in 0.00 W/m2
03:39 73.0 °F 66.0 °F 29.6 in SSE 26 mph 26 mph 80% 0.000 in 0.00 W/m2
03:44 73.0 °F 66.0 °F 29.6 in SSE 18 mph 24 mph 80% 0.000 in 0.00 W/m2
03:49 73.0 °F 66.0 °F 29.6 in SSE 23 mph 23 mph 80% 0.000 in 0.00 W/m2
03:54 73.0 °F 66.0 °F 29.6 in SSE 21 mph 25 mph 80% 0.000 in 0.00 W/m2
03:59 73.0 °F 66.0 °F 29.6 in SSE 20 mph 23 mph 80% 0.000 in 0.00 W/m2
04:04 73.0 °F 66.0 °F 29.6 in SSE 24 mph 27 mph 80% 0.000 in 0.00 W/m2
04:09 73.0 °F 66.0 °F 29.6 in SSE 26 mph 26 mph 80% 0.000 in 0.00 W/m2
04:14 73.0 °F 66.0 °F 29.6 in SSE 27 mph 27 mph 80% 0.000 in 0.00 W/m2
04:19 73.0 °F 66.0 °F 29.6 in SSE 22 mph 22 mph 80% 0.000 in 0.00 W/m2
04:24 73.0 °F 66.0 °F 29.6 in SSE 21 mph 21 mph 80% 0.000 in 0.00 W/m2
04:29 73.0 °F 66.0 °F 29.6 in SSE 22 mph 22 mph 80% 0.000 in 0.00 W/m2
04:34 73.0 °F 66.0 °F 29.6 in SSE 21 mph 22 mph 80% 0.000 in 0.00 W/m2
04:39 73.0 °F 66.0 °F 29.6 in South 21 mph 21 mph 80% 0.000 in 0.00 W/m2
04:44 73.0 °F 66.0 °F 29.6 in SSE 14 mph 17 mph 80% 0.000 in 0.00 W/m2
04:49 73.0 °F 66.0 °F 29.6 in SSE 12 mph 17 mph 80% 0.000 in 0.00 W/m2
04:54 73.0 °F 66.0 °F 29.6 in SSE 18 mph 18 mph 80% 0.000 in 0.00 W/m2
04:59 73.0 °F 66.0 °F 29.6 in SSE 20 mph 21 mph 80% 0.000 in 0.00 W/m2
05:04 73.0 °F 66.0 °F 29.6 in SSE 18 mph 20 mph 80% 0.000 in 0.00 W/m2
05:09 73.0 °F 66.0 °F 29.6 in SSE 15 mph 21 mph 80% 0.000 in 0.00 W/m2
05:14 73.0 °F 66.0 °F 29.6 in SSE 20 mph 21 mph 80% 0.000 in 0.00 W/m2
05:19 73.0 °F 66.0 °F 29.6 in SE 23 mph 23 mph 80% 0.000 in 0.00 W/m2
05:24 73.0 °F 66.0 °F 29.6 in SSE 18 mph 24 mph 80% 0.000 in 0.00 W/m2
05:29 73.0 °F 66.0 °F 29.6 in South 19 mph 19 mph 80% 0.000 in 0.00 W/m2
05:34 73.0 °F 66.0 °F 29.6 in SSE 24 mph 24 mph 80% 0.000 in 0.00 W/m2
05:39 73.0 °F 67.0 °F 29.6 in SSE 20 mph 24 mph 80% 0.000 in 0.00 W/m2
05:44 73.0 °F 67.0 °F 29.6 in SSE 19 mph 24 mph 80% 0.000 in 0.00 W/m2
05:49 73.0 °F 67.0 °F 29.6 in SSE 22 mph 23 mph 80% 0.000 in 0.00 W/m2
05:54 73.0 °F 67.0 °F 29.6 in SSE 19 mph 24 mph 80% 0.000 in 0.00 W/m2
05:59 73.0 °F 66.0 °F 29.6 in SSE 11 mph 15 mph 80% 0.000 in 0.00 W/m2
06:04 73.0 °F 66.0 °F 29.6 in SSE 17 mph 18 mph 80% 0.000 in 0.00 W/m2
06:09 73.0 °F 66.0 °F 29.6 in SSE 17 mph 17 mph 80% 0.000 in 0.00 W/m2
06:14 73.0 °F 66.0 °F 29.6 in SSE 19 mph 19 mph 80% 0.000 in 0.00 W/m2
06:19 73.0 °F 67.0 °F 29.6 in SSE 23 mph 25 mph 80% 0.000 in 0.00 W/m2
06:24 73.0 °F 67.0 °F 29.6 in SSE 17 mph 20 mph 81% 0.000 in 0.00 W/m2
06:29 73.0 °F 67.0 °F 29.6 in SSE 22 mph 24 mph 81% 0.000 in 0.00 W/m2
06:34 73.0 °F 67.0 °F 29.6 in South 19 mph 19 mph 81% 0.000 in 0.00 W/m2
06:39 73.0 °F 67.0 °F 29.6 in SSE 12 mph 20 mph 81% 0.000 in 0.00 W/m2
06:44 73.0 °F 67.0 °F 29.6 in SSE 13 mph 13 mph 81% 0.000 in 0.00 W/m2
06:49 73.0 °F 67.0 °F 29.6 in SSE 11 mph 13 mph 81% 0.000 in 0.00 W/m2
06:54 73.0 °F 67.0 °F 29.6 in SSE 11 mph 15 mph 82% 0.000 in 0.00 W/m2
06:59 73.0 °F 67.0 °F 29.6 in SSE 12 mph 12 mph 82% 0.000 in 0.00 W/m2
07:04 73.0 °F 67.0 °F 29.6 in SSE 12 mph 13 mph 82% 0.000 in 0.00 W/m2
07:09 73.0 °F 67.0 °F 29.6 in SSE 13 mph 14 mph 82% 0.000 in 0.00 W/m2
07:14 73.0 °F 67.0 °F 29.6 in SSE 10 mph 14 mph 82% 0.000 in 0.00 W/m2
07:19 73.0 °F 67.0 °F 29.6 in SSE 9 mph 9 mph 82% 0.000 in 0.00 W/m2
07:24 73.0 °F 67.0 °F 29.6 in SSE 10 mph 14 mph 82% 0.000 in 0.00 W/m2
07:29 73.0 °F 67.0 °F 29.6 in SSE 9 mph 9 mph 82% 0.000 in 0.00 W/m2
07:34 73.0 °F 67.0 °F 29.6 in South 10 mph 14 mph 82% 0.000 in 7.00 W/m2
07:39 72.0 °F 67.0 °F 29.6 in South 11 mph 14 mph 82% 0.000 in 12.00 W/m2
07:44 72.0 °F 67.0 °F 29.6 in South 13 mph 13 mph 82% 0.000 in 12.00 W/m2
07:49 72.0 °F 67.0 °F 29.6 in SSE 10 mph 13 mph 82% 0.000 in 12.00 W/m2
07:54 72.0 °F 67.0 °F 29.6 in South 12 mph 12 mph 82% 0.000 in 11.00 W/m2
07:59 72.0 °F 67.0 °F 29.6 in SSE 15 mph 15 mph 82% 0.000 in 9.00 W/m2
08:04 73.0 °F 67.0 °F 29.6 in SSE 9 mph 13 mph 82% 0.000 in 7.00 W/m2
08:09 73.0 °F 67.0 °F 29.6 in SSE 14 mph 14 mph 82% 0.000 in 14.00 W/m2
08:14 73.0 °F 67.0 °F 29.6 in SSE 12 mph 12 mph 82% 0.000 in 19.00 W/m2
08:19 73.0 °F 67.0 °F 29.6 in SSE 14 mph 14 mph 82% 0.000 in 23.00 W/m2
08:24 73.0 °F 67.0 °F 29.6 in SSE 12 mph 14 mph 82% 0.000 in 26.00 W/m2
08:29 73.0 °F 67.0 °F 29.6 in SSE 11 mph 13 mph 82% 0.000 in 25.00 W/m2
08:34 73.0 °F 67.0 °F 29.6 in SSE 16 mph 19 mph 82% 0.000 in 25.00 W/m2
08:39 73.0 °F 67.0 °F 29.6 in SSE 12 mph 13 mph 82% 0.000 in 21.00 W/m2
08:44 73.0 °F 67.0 °F 29.6 in SSE 17 mph 17 mph 82% 0.000 in 33.00 W/m2
08:49 73.0 °F 67.0 °F 29.6 in SSE 14 mph 17 mph 82% 0.000 in 33.00 W/m2
08:54 73.0 °F 68.0 °F 29.6 in SSE 12 mph 14 mph 83% 0.000 in 23.00 W/m2
08:59 73.0 °F 68.0 °F 29.6 in SSE 14 mph 17 mph 83% 0.000 in 49.00 W/m2
09:04 73.0 °F 68.0 °F 29.6 in SSE 12 mph 16 mph 83% 0.000 in 49.00 W/m2
09:09 73.0 °F 68.0 °F 29.6 in SSE 16 mph 16 mph 84% 0.000 in 70.00 W/m2
09:14 73.0 °F 68.0 °F 29.6 in SSE 10 mph 12 mph 84% 0.000 in 72.00 W/m2
09:19 73.0 °F 68.0 °F 29.6 in SSE 13 mph 13 mph 85% 0.000 in 67.00 W/m2
09:24 73.0 °F 68.0 °F 29.6 in SSE 19 mph 19 mph 85% 0.000 in 33.00 W/m2
09:29 72.0 °F 68.0 °F 29.6 in SSE 11 mph 14 mph 85% 0.000 in 25.00 W/m2
09:34 72.0 °F 68.0 °F 29.6 in WSW 20 mph 20 mph 86% 0.010 in 21.00 W/m2
09:39 72.0 °F 68.0 °F 29.6 in NW 24 mph 24 mph 86% 0.010 in 0.00 W/m2
09:44 67.0 °F 60.0 °F 29.7 in WNW 15 mph 18 mph 79% 0.010 in 5.00 W/m2
09:49 64.0 °F 57.0 °F 29.7 in NW 9 mph 17 mph 80% 0.020 in 35.00 W/m2
09:54 62.0 °F 57.0 °F 29.7 in NW 19 mph 19 mph 81% 0.020 in 23.00 W/m2
09:59 61.0 °F 56.0 °F 29.7 in NNW 11 mph 19 mph 83% 0.020 in 35.00 W/m2
10:04 60.0 °F 55.0 °F 29.7 in NW 12 mph 12 mph 84% 0.030 in 35.00 W/m2
10:09 60.0 °F 55.0 °F 29.7 in NW 14 mph 14 mph 85% 0.030 in 74.00 W/m2
10:14 60.0 °F 55.0 °F 29.7 in NW 11 mph 14 mph 85% 0.030 in 53.00 W/m2
10:19 59.0 °F 55.0 °F 29.7 in NW 8 mph 11 mph 86% 0.040 in 74.00 W/m2
10:24 59.0 °F 55.0 °F 29.7 in WNW 7 mph 8 mph 87% 0.040 in 74.00 W/m2
10:29 59.0 °F 55.0 °F 29.7 in WNW 7 mph 8 mph 87% 0.040 in 65.00 W/m2
10:34 59.0 °F 55.0 °F 29.7 in NW 7 mph 7 mph 87% 0.040 in 51.00 W/m2
10:39 59.0 °F 55.0 °F 29.7 in NW 7 mph 7 mph 87% 0.040 in 77.00 W/m2
10:44 59.0 °F 56.0 °F 29.7 in NNW 5 mph 7 mph 88% 0.040 in 120.00 W/m2
10:49 59.0 °F 56.0 °F 29.6 in North 9 mph 10 mph 88% 0.040 in 167.00 W/m2
10:54 60.0 °F 56.0 °F 29.6 in North 10 mph 10 mph 88% 0.040 in 197.00 W/m2
10:59 60.0 °F 56.0 °F 29.6 in NNE 8 mph 8 mph 88% 0.040 in 264.00 W/m2
11:04 60.0 °F 57.0 °F 29.6 in North 6 mph 8 mph 89% 0.040 in 325.00 W/m2
11:09 61.0 °F 57.0 °F 29.6 in NNE 6 mph 9 mph 89% 0.030 in 325.00 W/m2
11:14 61.0 °F 58.0 °F 29.6 in NNE 8 mph 8 mph 89% 0.030 in 287.00 W/m2
11:19 61.0 °F 58.0 °F 29.6 in North 6 mph 8 mph 89% 0.030 in 385.00 W/m2
11:24 62.0 °F 58.0 °F 29.6 in North 7 mph 7 mph 89% 0.030 in 376.00 W/m2
11:29 62.0 °F 58.0 °F 29.6 in NNW 6 mph 6 mph 89% 0.030 in 907.00 W/m2
11:34 62.0 °F 59.0 °F 29.6 in NNW 5 mph 6 mph 89% 0.030 in 907.00 W/m2
11:39 63.0 °F 59.0 °F 29.6 in North 3 mph 4 mph 88% 0.020 in 355.00 W/m2
11:44 63.0 °F 60.0 °F 29.6 in NNE 4 mph 6 mph 88% 0.030 in 396.00 W/m2
11:49 64.0 °F 60.0 °F 29.6 in NNE 3 mph 3 mph 86% 0.030 in 436.00 W/m2
11:54 65.0 °F 60.0 °F 29.6 in North 3 mph 4 mph 86% 0.030 in 628.00 W/m2
11:59 66.0 °F 61.0 °F 29.6 in SW 3 mph 4 mph 84% 0.020 in 628.00 W/m2
12:04 67.0 °F 62.0 °F 29.6 in South 3 mph 3 mph 84% 0.020 in 983.00 W/m2
12:09 67.0 °F 61.0 °F 29.6 in SW 4 mph 5 mph 82% 0.020 in 865.00 W/m2
12:14 68.0 °F 61.0 °F 29.6 in WNW 3 mph 5 mph 80% 0.030 in 858.00 W/m2
12:19 68.0 °F 61.0 °F 29.6 in SSW 3 mph 3 mph 78% 0.030 in 863.00 W/m2
12:24 68.0 °F 59.0 °F 29.6 in WSW 6 mph 6 mph 75% 0.020 in 870.00 W/m2
12:29 69.0 °F 61.0 °F 29.6 in SSW 5 mph 5 mph 77% 0.020 in 875.00 W/m2
12:34 69.0 °F 62.0 °F 29.6 in SSW 6 mph 6 mph 77% 0.020 in 877.00 W/m2
12:39 70.0 °F 60.0 °F 29.6 in WSW 5 mph 6 mph 73% 0.030 in 882.00 W/m2
12:44 70.0 °F 60.0 °F 29.6 in WSW 5 mph 7 mph 72% 0.030 in 889.00 W/m2
12:49 71.0 °F 61.0 °F 29.6 in SSW 6 mph 6 mph 71% 0.020 in 898.00 W/m2
12:54 72.0 °F 62.0 °F 29.6 in SSW 6 mph 7 mph 71% 0.020 in 907.00 W/m2
12:59 72.0 °F 61.0 °F 29.6 in West 5 mph 7 mph 68% 0.020 in 911.00 W/m2
13:04 72.0 °F 60.0 °F 29.6 in West 5 mph 8 mph 67% 0.020 in 914.00 W/m2
13:09 73.0 °F 62.0 °F 29.6 in SSW 7 mph 7 mph 69% 0.020 in 918.00 W/m2
13:14 74.0 °F 61.0 °F 29.6 in SSW 8 mph 8 mph 66% 0.020 in 923.00 W/m2
13:19 74.0 °F 61.0 °F 29.6 in SW 12 mph 12 mph 64% 0.020 in 919.00 W/m2
13:24 75.0 °F 61.0 °F 29.6 in SW 6 mph 12 mph 63% 0.020 in 926.00 W/m2
13:29 75.0 °F 61.0 °F 29.6 in SW 7 mph 9 mph 61% 0.020 in 923.00 W/m2
13:34 76.0 °F 59.0 °F 29.6 in WSW 14 mph 14 mph 56% 0.020 in 925.00 W/m2
13:39 76.0 °F 59.0 °F 29.6 in SW 8 mph 10 mph 54% 0.020 in 926.00 W/m2
13:44 77.0 °F 59.0 °F 29.6 in SW 11 mph 11 mph 56% 0.010 in 925.00 W/m2
13:49 77.0 °F 59.0 °F 29.6 in WSW 14 mph 14 mph 53% 0.010 in 921.00 W/m2
13:54 77.0 °F 59.0 °F 29.6 in WSW 12 mph 14 mph 53% 0.010 in 916.00 W/m2
13:59 77.0 °F 58.0 °F 29.6 in West 17 mph 17 mph 52% 0.010 in 912.00 W/m2
14:04 78.0 °F 59.0 °F 29.6 in WSW 11 mph 14 mph 53% 0.010 in 911.00 W/m2
14:09 78.0 °F 59.0 °F 29.6 in WSW 16 mph 16 mph 52% 0.010 in 911.00 W/m2
14:14 78.0 °F 60.0 °F 29.6 in SW 13 mph 16 mph 53% 0.020 in 911.00 W/m2
14:19 78.0 °F 60.0 °F 29.6 in WSW 13 mph 13 mph 54% 0.020 in 911.00 W/m2
14:24 78.0 °F 61.0 °F 29.6 in WSW 14 mph 14 mph 55% 0.010 in 904.00 W/m2
14:29 79.0 °F 61.0 °F 29.6 in WSW 15 mph 15 mph 54% 0.010 in 937.00 W/m2
14:34 80.0 °F 62.0 °F 29.6 in WSW 15 mph 15 mph 55% 0.010 in 893.00 W/m2
14:39 80.0 °F 61.0 °F 29.6 in West 13 mph 14 mph 52% 0.010 in 895.00 W/m2
14:44 80.0 °F 60.0 °F 29.6 in West 17 mph 23 mph 50% 0.010 in 895.00 W/m2
14:49 80.0 °F 59.0 °F 29.6 in West 18 mph 23 mph 48% 0.010 in 865.00 W/m2
14:54 80.0 °F 59.0 °F 29.6 in WNW 15 mph 18 mph 48% 0.010 in 854.00 W/m2
14:59 80.0 °F 58.0 °F 29.6 in West 15 mph 19 mph 47% 0.010 in 853.00 W/m2
15:04 81.0 °F 59.0 °F 29.6 in NW 23 mph 23 mph 47% 0.010 in 837.00 W/m2
15:09 81.0 °F 57.0 °F 29.6 in NW 27 mph 27 mph 45% 0.010 in 833.00 W/m2
15:14 81.0 °F 55.0 °F 29.6 in WSW 20 mph 20 mph 41% 0.010 in 835.00 W/m2
15:19 81.0 °F 54.0 °F 29.6 in West 13 mph 19 mph 40% 0.000 in 831.00 W/m2
15:24 81.0 °F 54.0 °F 29.6 in West 17 mph 18 mph 39% 0.000 in 814.00 W/m2
15:29 81.0 °F 53.0 °F 29.6 in West 15 mph 15 mph 38% 0.000 in 798.00 W/m2
15:34 82.0 °F 54.0 °F 29.6 in WNW 15 mph 19 mph 39% 0.010 in 802.00 W/m2
15:39 82.0 °F 53.0 °F 29.6 in WSW 21 mph 21 mph 37% 0.010 in 796.00 W/m2
15:44 82.0 °F 52.0 °F 29.6 in West 17 mph 21 mph 36% 0.010 in 763.00 W/m2
15:49 82.0 °F 52.0 °F 29.6 in WNW 22 mph 24 mph 36% 0.010 in 754.00 W/m2
15:54 81.0 °F 51.0 °F 29.6 in WNW 16 mph 17 mph 35% 0.010 in 742.00 W/m2
15:59 82.0 °F 51.0 °F 29.6 in West 16 mph 20 mph 35% 0.010 in 733.00 W/m2
16:04 82.0 °F 51.0 °F 29.6 in WNW 16 mph 18 mph 34% 0.010 in 722.00 W/m2
16:09 82.0 °F 51.0 °F 29.6 in West 20 mph 20 mph 34% 0.010 in 714.00 W/m2
16:14 82.0 °F 50.0 °F 29.6 in WSW 18 mph 20 mph 33% 0.010 in 696.00 W/m2
16:19 82.0 °F 50.0 °F 29.6 in WSW 17 mph 20 mph 33% 0.010 in 680.00 W/m2
16:24 82.0 °F 52.0 °F 29.6 in WSW 19 mph 19 mph 36% 0.010 in 671.00 W/m2
16:29 82.0 °F 51.0 °F 29.6 in West 16 mph 19 mph 34% 0.010 in 643.00 W/m2
16:34 82.0 °F 52.0 °F 29.6 in NW 16 mph 19 mph 35% 0.010 in 631.00 W/m2
16:39 82.0 °F 51.0 °F 29.6 in WNW 13 mph 18 mph 34% 0.000 in 622.00 W/m2
16:44 82.0 °F 51.0 °F 29.6 in West 13 mph 16 mph 34% 0.000 in 606.00 W/m2
16:49 82.0 °F 51.0 °F 29.6 in WNW 14 mph 15 mph 34% 0.000 in 587.00 W/m2
16:54 82.0 °F 50.0 °F 29.6 in NW 13 mph 15 mph 33% 0.000 in 570.00 W/m2
16:59 82.0 °F 50.0 °F 29.6 in WNW 15 mph 16 mph 33% 0.000 in 552.00 W/m2
17:04 82.0 °F 50.0 °F 29.6 in WNW 11 mph 11 mph 33% 0.000 in 533.00 W/m2
17:09 82.0 °F 50.0 °F 29.6 in WNW 14 mph 15 mph 33% 0.000 in 515.00 W/m2
17:14 82.0 °F 51.0 °F 29.6 in NW 17 mph 19 mph 34% 0.000 in 501.00 W/m2
17:19 82.0 °F 51.0 °F 29.6 in WNW 16 mph 19 mph 34% 0.010 in 480.00 W/m2
17:24 81.0 °F 51.0 °F 29.6 in NW 11 mph 16 mph 35% 0.010 in 466.00 W/m2
17:29 81.0 °F 51.0 °F 29.6 in WNW 16 mph 16 mph 36% 0.010 in 448.00 W/m2
17:34 81.0 °F 52.0 °F 29.6 in NW 12 mph 13 mph 37% 0.010 in 425.00 W/m2
17:39 80.0 °F 52.0 °F 29.6 in NW 14 mph 16 mph 37% 0.010 in 408.00 W/m2
17:44 80.0 °F 52.0 °F 29.6 in WNW 17 mph 17 mph 37% 0.010 in 385.00 W/m2
17:49 80.0 °F 51.0 °F 29.6 in WNW 20 mph 20 mph 37% 0.010 in 376.00 W/m2
17:54 80.0 °F 51.0 °F 29.6 in NW 12 mph 16 mph 37% 0.010 in 348.00 W/m2
17:59 80.0 °F 51.0 °F 29.6 in NW 15 mph 15 mph 37% 0.010 in 332.00 W/m2
18:04 79.0 °F 51.0 °F 29.6 in WNW 16 mph 16 mph 37% 0.010 in 308.00 W/m2
18:09 79.0 °F 51.0 °F 29.6 in NW 19 mph 19 mph 37% 0.010 in 290.00 W/m2
18:14 79.0 °F 51.0 °F 29.6 in NW 15 mph 16 mph 38% 0.010 in 272.00 W/m2
18:19 79.0 °F 51.0 °F 29.7 in NW 13 mph 15 mph 38% 0.010 in 251.00 W/m2
18:24 78.0 °F 51.0 °F 29.7 in NW 15 mph 16 mph 39% 0.000 in 229.00 W/m2
18:29 78.0 °F 51.0 °F 29.7 in WNW 11 mph 13 mph 39% 0.000 in 213.00 W/m2
18:34 78.0 °F 51.0 °F 29.7 in WNW 10 mph 12 mph 39% 0.000 in 192.00 W/m2
18:39 78.0 °F 51.0 °F 29.7 in WNW 16 mph 16 mph 39% 0.000 in 171.00 W/m2
18:44 77.0 °F 51.0 °F 29.7 in WNW 12 mph 16 mph 39% 0.000 in 142.00 W/m2
18:49 77.0 °F 50.0 °F 29.7 in WNW 14 mph 14 mph 39% 0.000 in 46.00 W/m2
18:54 77.0 °F 51.0 °F 29.7 in WNW 13 mph 13 mph 40% 0.000 in 35.00 W/m2
18:59 77.0 °F 51.0 °F 29.7 in WNW 15 mph 15 mph 40% 0.000 in 33.00 W/m2
19:04 76.0 °F 51.0 °F 29.7 in WNW 12 mph 12 mph 41% 0.000 in 30.00 W/m2
19:09 76.0 °F 50.0 °F 29.7 in NW 13 mph 15 mph 41% 0.000 in 26.00 W/m2
19:14 75.0 °F 50.0 °F 29.7 in NW 12 mph 13 mph 41% 0.000 in 23.00 W/m2
19:19 75.0 °F 50.0 °F 29.7 in NW 12 mph 16 mph 42% 0.010 in 19.00 W/m2
19:24 75.0 °F 51.0 °F 29.7 in NNW 16 mph 16 mph 43% 0.010 in 16.00 W/m2
19:29 74.0 °F 51.0 °F 29.7 in NW 11 mph 11 mph 44% 0.010 in 12.00 W/m2
19:34 74.0 °F 51.0 °F 29.7 in NW 13 mph 13 mph 45% 0.010 in 9.00 W/m2
19:39 74.0 °F 51.0 °F 29.7 in NW 12 mph 13 mph 45% 0.010 in 5.00 W/m2
19:44 73.0 °F 50.0 °F 29.7 in NW 10 mph 13 mph 45% 0.010 in 0.00 W/m2
19:49 73.0 °F 51.0 °F 29.7 in NW 10 mph 11 mph 46% 0.010 in 0.00 W/m2
19:54 72.0 °F 50.0 °F 29.7 in NW 8 mph 9 mph 46% 0.010 in 0.00 W/m2
19:59 72.0 °F 50.0 °F 29.7 in NW 8 mph 9 mph 46% 0.010 in 0.00 W/m2
20:04 72.0 °F 51.0 °F 29.7 in NW 9 mph 9 mph 47% 0.010 in 0.00 W/m2
20:09 71.0 °F 50.0 °F 29.7 in NW 9 mph 10 mph 47% 0.010 in 0.00 W/m2
20:14 71.0 °F 50.0 °F 29.7 in NW 8 mph 10 mph 47% 0.010 in 0.00 W/m2
20:19 71.0 °F 50.0 °F 29.7 in NW 10 mph 10 mph 48% 0.010 in 0.00 W/m2
20:24 71.0 °F 50.0 °F 29.7 in NW 10 mph 10 mph 48% 0.000 in 0.00 W/m2
20:29 71.0 °F 50.0 °F 29.7 in NW 9 mph 10 mph 48% 0.000 in 0.00 W/m2
20:34 70.0 °F 50.0 °F 29.7 in NNW 12 mph 13 mph 48% 0.000 in 0.00 W/m2
20:39 70.0 °F 50.0 °F 29.7 in NW 11 mph 13 mph 48% 0.000 in 0.00 W/m2
20:44 70.0 °F 50.0 °F 29.7 in WNW 11 mph 12 mph 48% 0.000 in 0.00 W/m2
20:49 70.0 °F 49.0 °F 29.7 in NW 11 mph 12 mph 48% 0.000 in 0.00 W/m2
20:54 69.0 °F 49.0 °F 29.7 in NW 9 mph 11 mph 49% 0.000 in 0.00 W/m2
20:59 69.0 °F 49.0 °F 29.7 in NW 11 mph 11 mph 49% 0.000 in 0.00 W/m2
21:04 69.0 °F 49.0 °F 29.7 in NW 10 mph 11 mph 49% 0.000 in 0.00 W/m2
21:09 69.0 °F 49.0 °F 29.8 in NW 5 mph 8 mph 49% 0.000 in 0.00 W/m2
21:14 69.0 °F 49.0 °F 29.8 in NW 11 mph 11 mph 49% 0.000 in 0.00 W/m2
21:19 68.0 °F 49.0 °F 29.8 in NW 8 mph 9 mph 50% 0.000 in 0.00 W/m2
21:24 68.0 °F 49.0 °F 29.8 in NW 8 mph 9 mph 50% 0.000 in 0.00 W/m2
21:29 68.0 °F 49.0 °F 29.8 in NNW 11 mph 14 mph 51% 0.000 in 0.00 W/m2
21:34 68.0 °F 49.0 °F 29.8 in NNW 11 mph 12 mph 51% 0.000 in 0.00 W/m2
21:39 68.0 °F 49.0 °F 29.8 in NNW 11 mph 11 mph 51% 0.000 in 0.00 W/m2
21:44 67.0 °F 49.0 °F 29.8 in NW 11 mph 11 mph 51% 0.000 in 0.00 W/m2
21:49 67.0 °F 48.0 °F 29.8 in NNW 7 mph 11 mph 51% 0.000 in 0.00 W/m2
21:54 67.0 °F 48.0 °F 29.8 in NNW 10 mph 11 mph 51% 0.000 in 0.00 W/m2
21:59 67.0 °F 48.0 °F 29.8 in NW 12 mph 14 mph 51% 0.000 in 0.00 W/m2
22:04 66.0 °F 48.0 °F 29.8 in NNW 12 mph 12 mph 51% 0.000 in 0.00 W/m2
22:09 66.0 °F 47.0 °F 29.8 in NW 11 mph 11 mph 51% 0.000 in 0.00 W/m2
22:14 66.0 °F 47.0 °F 29.8 in NNW 12 mph 12 mph 51% 0.000 in 0.00 W/m2
22:19 66.0 °F 48.0 °F 29.8 in NNW 9 mph 12 mph 52% 0.000 in 0.00 W/m2
22:24 66.0 °F 48.0 °F 29.8 in NNW 9 mph 9 mph 52% 0.000 in 0.00 W/m2
22:29 65.0 °F 47.0 °F 29.8 in NW 8 mph 9 mph 52% 0.000 in 0.00 W/m2
22:34 65.0 °F 47.0 °F 29.8 in NNW 9 mph 10 mph 52% 0.010 in 0.00 W/m2
22:39 65.0 °F 48.0 °F 29.8 in NNW 12 mph 12 mph 53% 0.010 in 0.00 W/m2
22:44 65.0 °F 47.0 °F 29.8 in NW 10 mph 12 mph 53% 0.010 in 0.00 W/m2
22:49 65.0 °F 47.0 °F 29.8 in NW 10 mph 13 mph 53% 0.010 in 0.00 W/m2
22:54 64.0 °F 47.0 °F 29.8 in NNW 9 mph 11 mph 53% 0.010 in 0.00 W/m2
22:59 64.0 °F 47.0 °F 29.8 in NNW 10 mph 10 mph 53% 0.010 in 0.00 W/m2
23:04 64.0 °F 47.0 °F 29.8 in NW 12 mph 12 mph 53% 0.010 in 0.00 W/m2
23:09 64.0 °F 47.0 °F 29.8 in NW 11 mph 12 mph 53% 0.010 in 0.00 W/m2
23:14 64.0 °F 46.0 °F 29.8 in NNW 11 mph 12 mph 53% 0.010 in 0.00 W/m2
23:19 64.0 °F 47.0 °F 29.8 in NNW 10 mph 12 mph 54% 0.010 in 0.00 W/m2
23:24 63.0 °F 46.0 °F 29.8 in NNW 6 mph 10 mph 54% 0.010 in 0.00 W/m2
23:29 63.0 °F 47.0 °F 29.8 in NNW 8 mph 8 mph 55% 0.010 in 0.00 W/m2
23:34 63.0 °F 47.0 °F 29.8 in NNW 10 mph 10 mph 55% 0.010 in 0.00 W/m2
23:39 63.0 °F 46.0 °F 29.8 in NNW 8 mph 9 mph 55% 0.000 in 0.00 W/m2
23:44 63.0 °F 47.0 °F 29.8 in NNW 9 mph 11 mph 56% 0.000 in 0.00 W/m2
23:49 62.0 °F 46.0 °F 29.8 in NNW 9 mph 11 mph 56% 0.000 in 0.00 W/m2
23:54 62.0 °F 46.0 °F 29.8 in North 11 mph 11 mph 56% 0.000 in 0.00 W/m2
23:59 62.0 °F 46.0 °F 29.8 in North 13 mph 13 mph 56% 0.000 in 0.00 W/m2
Villages of Bridgestone, Spring, TX USA
Compliments of Weather Underground - 4 mb